Time,TemperatureF,DewpointF,PressureIn,WindDirection,WindDirectionDegrees,WindSpeedMPH,WindSpeedGustMPH,Humidity,HourlyPrecipIn,Conditions,Clouds,dailyrainin,SoftwareType,DateUTC
2013-01-13 00:01:00,25.0,14.0,29.93,NW,311,0.0,0.0,62,0.00,,,0.00,,2013-01-13 08:01:00,
2013-01-13 00:11:00,25.0,14.0,29.93,NW,311,0.0,0.0,62,0.00,,,0.00,,2013-01-13 08:11:00,
2013-01-13 00:22:00,25.0,13.0,29.92,North,351,3.0,3.0,61,0.00,,,0.00,,2013-01-13 08:22:00,
2013-01-13 00:32:00,27.0,12.0,29.92,NNW,342,1.0,3.0,53,0.00,,,0.00,,2013-01-13 08:32:00,
2013-01-13 00:42:00,27.0,12.0,29.92,NNW,342,1.0,3.0,53,0.00,,,0.00,,2013-01-13 08:42:00,
2013-01-13 00:52:00,28.0,11.0,29.93,North,350,5.0,8.0,48,0.00,,,0.00,,2013-01-13 08:52:00,
2013-01-13 01:02:00,27.0,11.0,29.92,NNW,347,2.0,3.0,51,0.00,,,0.00,,2013-01-13 09:02:00,
2013-01-13 01:11:00,27.0,11.0,29.93,NNW,342,2.0,5.0,51,0.00,,,0.00,,2013-01-13 09:11:00,
2013-01-13 01:22:00,27.0,11.0,29.93,NNW,342,2.0,5.0,51,0.00,,,0.00,,2013-01-13 09:22:00,
2013-01-13 01:32:00,27.0,13.0,29.93,NNW,342,0.0,2.0,54,0.00,,,0.00,,2013-01-13 09:32:00,
2013-01-13 01:42:00,27.0,13.0,29.93,NNW,342,0.0,2.0,54,0.00,,,0.00,,2013-01-13 09:42:00,
2013-01-13 01:52:00,26.0,13.0,29.93,NNW,342,0.0,0.0,57,0.00,,,0.00,,2013-01-13 09:52:00,
2013-01-13 02:02:00,24.0,12.0,29.94,NNW,342,1.0,2.0,59,0.00,,,0.00,,2013-01-13 10:02:00,
2013-01-13 02:11:00,24.0,12.0,29.94,NNW,342,1.0,2.0,59,0.00,,,0.00,,2013-01-13 10:11:00,
2013-01-13 02:22:00,24.0,12.0,29.94,NNW,342,0.0,3.0,60,0.00,,,0.00,,2013-01-13 10:22:00,
2013-01-13 02:32:00,24.0,12.0,29.95,NNW,340,2.0,3.0,59,0.00,,,0.00,,2013-01-13 10:32:00,
2013-01-13 02:42:00,24.0,12.0,29.95,NNW,340,2.0,3.0,59,0.00,,,0.00,,2013-01-13 10:42:00,
2013-01-13 02:52:00,24.0,11.0,29.95,NNW,340,0.0,1.0,56,0.00,,,0.00,,2013-01-13 10:52:00,
2013-01-13 03:02:00,24.0,11.0,29.94,NNW,340,0.0,3.0,58,0.00,,,0.00,,2013-01-13 11:02:00,
2013-01-13 03:11:00,24.0,11.0,29.94,NNW,340,0.0,3.0,58,0.00,,,0.00,,2013-01-13 11:11:00,
2013-01-13 03:22:00,23.0,11.0,29.95,NNW,340,0.0,4.0,60,0.00,,,0.00,,2013-01-13 11:22:00,
2013-01-13 03:32:00,22.0,11.0,29.94,NNW,340,0.0,4.0,62,0.00,,,0.00,,2013-01-13 11:32:00,
2013-01-13 03:42:00,22.0,11.0,29.94,NNW,340,0.0,4.0,62,0.00,,,0.00,,2013-01-13 11:42:00,
2013-01-13 03:52:00,21.0,10.0,29.94,NNW,340,0.0,2.0,63,0.00,,,0.00,,2013-01-13 11:52:00,
2013-01-13 04:02:00,21.0,10.0,29.94,NNW,340,0.0,0.0,63,0.00,,,0.00,,2013-01-13 12:02:00,
2013-01-13 04:11:00,21.0,10.0,29.94,NNW,340,0.0,0.0,63,0.00,,,0.00,,2013-01-13 12:11:00,
2013-01-13 04:22:00,20.0,11.0,29.94,NNW,340,0.0,0.0,66,0.00,,,0.00,,2013-01-13 12:22:00,
2013-01-13 04:32:00,20.0,11.0,29.94,NNW,340,0.0,0.0,66,0.00,,,0.00,,2013-01-13 12:32:00,
2013-01-13 04:42:00,20.0,11.0,29.94,NNW,340,0.0,0.0,66,0.00,,,0.00,,2013-01-13 12:42:00,
2013-01-13 04:52:00,20.0,11.0,29.94,NNW,333,0.0,2.0,67,0.00,,,0.00,,2013-01-13 12:52:00,
2013-01-13 05:02:00,21.0,11.0,29.94,NNW,327,0.0,2.0,65,0.00,,,0.00,,2013-01-13 13:02:00,
2013-01-13 05:11:00,21.0,11.0,29.94,NNW,327,0.0,2.0,65,0.00,,,0.00,,2013-01-13 13:11:00,
2013-01-13 05:22:00,21.0,10.0,29.94,NNW,327,0.0,1.0,62,0.00,,,0.00,,2013-01-13 13:22:00,
2013-01-13 05:32:00,22.0,9.0,29.94,NNW,327,0.0,0.0,56,0.00,,,0.00,,2013-01-13 13:32:00,
2013-01-13 05:42:00,22.0,9.0,29.94,NNW,327,0.0,0.0,56,0.00,,,0.00,,2013-01-13 13:42:00,
2013-01-13 05:53:00,22.0,8.0,29.94,NNW,327,0.0,2.0,55,0.00,,,0.00,,2013-01-13 13:53:00,
2013-01-13 06:02:00,22.0,9.0,29.95,North,350,0.0,0.0,56,0.00,,,0.00,,2013-01-13 14:02:00,
2013-01-13 06:12:00,22.0,9.0,29.95,North,350,0.0,0.0,56,0.00,,,0.00,,2013-01-13 14:12:00,
2013-01-13 06:22:00,22.0,9.0,29.95,North,355,1.0,3.0,56,0.00,,,0.00,,2013-01-13 14:22:00,
2013-01-13 06:32:00,21.0,8.0,29.95,North,355,0.0,1.0,56,0.00,,,0.00,,2013-01-13 14:32:00,
2013-01-13 06:42:00,21.0,8.0,29.95,North,355,0.0,1.0,56,0.00,,,0.00,,2013-01-13 14:42:00,
2013-01-13 06:53:00,21.0,7.0,29.95,NW,325,1.0,2.0,55,0.00,,,0.00,,2013-01-13 14:53:00,
2013-01-13 07:02:00,21.0,7.0,29.96,North,360,4.0,5.0,54,0.00,,,0.00,,2013-01-13 15:02:00,
2013-01-13 07:12:00,21.0,7.0,29.96,North,360,4.0,5.0,54,0.00,,,0.00,,2013-01-13 15:12:00,
2013-01-13 07:22:00,21.0,7.0,29.97,North,355,1.0,5.0,55,0.00,,,0.00,,2013-01-13 15:22:00,
2013-01-13 07:33:00,21.0,7.0,29.96,North,355,0.0,3.0,53,0.00,,,0.00,,2013-01-13 15:33:00,
2013-01-13 07:42:00,21.0,7.0,29.96,North,355,0.0,3.0,53,0.00,,,0.00,,2013-01-13 15:42:00,
2013-01-13 07:52:00,21.0,7.0,29.97,North,355,0.0,2.0,55,0.00,,,0.00,,2013-01-13 15:52:00,
2013-01-13 08:02:00,21.0,7.0,29.98,North,355,1.0,2.0,53,0.00,,,0.00,,2013-01-13 16:02:00,
2013-01-13 08:11:00,21.0,7.0,29.98,North,355,1.0,2.0,53,0.00,,,0.00,,2013-01-13 16:11:00,
2013-01-13 08:22:00,22.0,9.0,29.97,ENE,65,0.0,0.0,56,0.00,,,0.00,,2013-01-13 16:22:00,
2013-01-13 08:33:00,21.0,8.0,29.97,ENE,65,0.0,0.0,57,0.00,,,0.00,,2013-01-13 16:33:00,
2013-01-13 08:42:00,21.0,8.0,29.97,ENE,65,0.0,0.0,57,0.00,,,0.00,,2013-01-13 16:42:00,
2013-01-13 08:53:00,22.0,8.0,29.97,ENE,65,0.0,2.0,55,0.00,,,0.00,,2013-01-13 16:53:00,
2013-01-13 09:02:00,24.0,11.0,29.98,NE,56,0.0,2.0,56,0.00,,,0.00,,2013-01-13 17:02:00,
2013-01-13 09:12:00,24.0,11.0,29.98,NE,56,0.0,2.0,56,0.00,,,0.00,,2013-01-13 17:12:00,
2013-01-13 09:22:00,26.0,11.0,29.98,NE,56,0.0,0.0,53,0.00,,,0.00,,2013-01-13 17:22:00,
2013-01-13 09:32:00,29.0,13.0,29.99,South,183,2.0,4.0,50,0.00,,,0.00,,2013-01-13 17:32:00,
2013-01-13 09:42:00,29.0,13.0,29.99,South,183,2.0,4.0,50,0.00,,,0.00,,2013-01-13 17:42:00,
2013-01-13 09:53:00,28.0,12.0,29.98,South,183,2.0,4.0,51,0.00,,,0.00,,2013-01-13 17:53:00,
2013-01-13 10:02:00,28.0,12.0,29.98,SSW,193,5.0,6.0,51,0.00,,,0.00,,2013-01-13 18:02:00,
2013-01-13 10:11:00,28.0,12.0,29.98,SSW,193,5.0,6.0,51,0.00,,,0.00,,2013-01-13 18:11:00,
2013-01-13 10:22:00,29.0,13.0,29.98,South,171,3.0,6.0,50,0.00,,,0.00,,2013-01-13 18:22:00,
2013-01-13 10:32:00,30.0,13.0,29.97,SSW,203,2.0,7.0,48,0.00,,,0.00,,2013-01-13 18:32:00,
2013-01-13 10:42:00,30.0,13.0,29.97,SSW,203,2.0,7.0,48,0.00,,,0.00,,2013-01-13 18:42:00,
2013-01-13 10:53:00,30.0,13.0,29.97,South,184,4.0,7.0,49,0.00,,,0.00,,2013-01-13 18:53:00,
2013-01-13 11:02:00,30.0,13.0,29.96,SSE,155,2.0,9.0,48,0.00,,,0.00,,2013-01-13 19:02:00,
2013-01-13 11:11:00,30.0,13.0,29.96,SSE,155,2.0,9.0,48,0.00,,,0.00,,2013-01-13 19:11:00,
2013-01-13 11:22:00,30.0,11.0,29.95,SSE,155,3.0,8.0,44,0.00,,,0.00,,2013-01-13 19:22:00,
2013-01-13 11:32:00,31.0,11.0,29.93,SW,230,1.0,4.0,43,0.00,,,0.00,,2013-01-13 19:32:00,
2013-01-13 11:42:00,31.0,11.0,29.93,SW,230,1.0,4.0,43,0.00,,,0.00,,2013-01-13 19:42:00,
2013-01-13 11:53:00,32.0,12.0,29.93,SE,137,4.0,7.0,42,0.00,,,0.00,,2013-01-13 19:53:00,
2013-01-13 12:02:00,32.0,13.0,29.91,South,190,2.0,4.0,45,0.00,,,0.00,,2013-01-13 20:02:00,
2013-01-13 12:11:00,32.0,13.0,29.91,South,190,2.0,4.0,45,0.00,,,0.00,,2013-01-13 20:11:00,
2013-01-13 12:22:00,33.0,12.0,29.91,WSW,257,2.0,7.0,41,0.00,,,0.00,,2013-01-13 20:22:00,
2013-01-13 12:32:00,32.0,10.0,29.90,North,355,7.0,10.0,40,0.00,,,0.00,,2013-01-13 20:32:00,
2013-01-13 12:42:00,32.0,10.0,29.90,North,355,7.0,10.0,40,0.00,,,0.00,,2013-01-13 20:42:00,
2013-01-13 12:53:00,31.0,9.0,29.90,NNW,344,11.0,19.0,39,0.00,,,0.00,,2013-01-13 20:53:00,
2013-01-13 13:02:00,30.0,11.0,29.89,North,355,13.0,21.0,45,0.00,,,0.00,,2013-01-13 21:02:00,
2013-01-13 13:12:00,30.0,11.0,29.89,North,355,13.0,21.0,45,0.00,,,0.00,,2013-01-13 21:12:00,
2013-01-13 13:22:00,30.0,13.0,29.89,NNW,348,11.0,26.0,48,0.00,,,0.00,,2013-01-13 21:22:00,
2013-01-13 13:32:00,32.0,13.0,29.89,NNW,338,5.0,13.0,45,0.00,,,0.00,,2013-01-13 21:32:00,
2013-01-13 13:42:00,32.0,13.0,29.89,NNW,338,5.0,13.0,45,0.00,,,0.00,,2013-01-13 21:42:00,
2013-01-13 13:53:00,31.0,14.0,29.89,North,355,6.0,18.0,49,0.00,,,0.00,,2013-01-13 21:53:00,
2013-01-13 14:02:00,32.0,14.0,29.89,North,360,7.0,19.0,46,0.00,,,0.00,,2013-01-13 22:02:00,
2013-01-13 14:11:00,32.0,14.0,29.89,North,360,7.0,19.0,46,0.00,,,0.00,,2013-01-13 22:11:00,
2013-01-13 14:22:00,31.0,13.0,29.90,SW,224,8.0,20.0,46,0.00,,,0.00,,2013-01-13 22:22:00,
2013-01-13 14:32:00,31.0,14.0,29.89,East,91,6.0,23.0,49,0.00,,,0.00,,2013-01-13 22:32:00,
2013-01-13 14:42:00,31.0,14.0,29.89,East,91,6.0,23.0,49,0.00,,,0.00,,2013-01-13 22:42:00,
2013-01-13 14:52:00,31.0,14.0,29.90,North,5,5.0,14.0,49,0.00,,,0.00,,2013-01-13 22:52:00,
2013-01-13 15:02:00,30.0,14.0,29.90,North,350,11.0,16.0,51,0.00,,,0.00,,2013-01-13 23:02:00,
2013-01-13 15:12:00,30.0,14.0,29.90,North,350,11.0,16.0,51,0.00,,,0.00,,2013-01-13 23:12:00,
2013-01-13 15:22:00,30.0,15.0,29.89,North,355,5.0,12.0,52,0.00,,,0.00,,2013-01-13 23:22:00,
2013-01-13 15:32:00,30.0,15.0,29.89,North,360,5.0,21.0,53,0.00,,,0.00,,2013-01-13 23:32:00,
2013-01-13 15:42:00,30.0,15.0,29.89,North,360,5.0,21.0,53,0.00,,,0.00,,2013-01-13 23:42:00,
2013-01-13 15:53:00,29.0,14.0,29.89,North,355,6.0,15.0,54,0.00,,,0.00,,2013-01-13 23:53:00,
2013-01-13 16:02:00,29.0,16.0,29.88,NNW,342,10.0,18.0,59,0.00,,,0.00,,2013-01-14 00:02:00,
2013-01-13 16:12:00,29.0,16.0,29.88,NNW,342,10.0,18.0,59,0.00,,,0.00,,2013-01-14 00:12:00,
2013-01-13 16:22:00,28.0,16.0,29.88,North,5,13.0,25.0,61,0.00,,,0.00,,2013-01-14 00:22:00,
2013-01-13 16:32:00,28.0,15.0,29.87,North,11,9.0,23.0,58,0.00,,,0.00,,2013-01-14 00:32:00,
2013-01-13 16:42:00,28.0,15.0,29.87,North,11,9.0,23.0,58,0.00,,,0.00,,2013-01-14 00:42:00,
2013-01-13 16:52:00,27.0,15.0,29.87,NNE,16,9.0,17.0,59,0.00,,,0.00,,2013-01-14 00:52:00,
2013-01-13 17:02:00,27.0,16.0,29.88,North,5,12.0,24.0,62,0.00,,,0.00,,2013-01-14 01:02:00,
2013-01-13 17:12:00,27.0,16.0,29.88,North,5,12.0,24.0,62,0.00,,,0.00,,2013-01-14 01:12:00,
2013-01-13 17:22:00,27.0,14.0,29.87,North,11,11.0,23.0,58,0.00,,,0.00,,2013-01-14 01:22:00,
2013-01-13 17:32:00,26.0,14.0,29.88,NNW,340,8.0,23.0,59,0.00,,,0.00,,2013-01-14 01:32:00,
2013-01-13 17:42:00,26.0,14.0,29.88,NNW,340,8.0,23.0,59,0.00,,,0.00,,2013-01-14 01:42:00,
2013-01-13 17:52:00,25.0,12.0,29.89,North,5,10.0,18.0,58,0.00,,,0.00,,2013-01-14 01:52:00,
2013-01-13 18:02:00,25.0,12.0,29.90,NNW,345,10.0,14.0,58,0.00,,,0.00,,2013-01-14 02:02:00,
2013-01-13 18:11:00,25.0,13.0,29.90,North,5,7.0,15.0,61,0.00,,,0.00,,2013-01-14 02:11:00,
2013-01-13 18:22:00,25.0,13.0,29.90,North,5,7.0,15.0,61,0.00,,,0.00,,2013-01-14 02:22:00,
2013-01-13 18:32:00,25.0,12.0,29.91,North,350,6.0,9.0,57,0.00,,,0.00,,2013-01-14 02:32:00,
2013-01-13 18:42:00,25.0,12.0,29.91,North,350,6.0,9.0,57,0.00,,,0.00,,2013-01-14 02:42:00,
2013-01-13 18:53:00,25.0,12.0,29.91,NNW,347,3.0,8.0,58,0.00,,,0.00,,2013-01-14 02:53:00,
2013-01-13 19:02:00,25.0,12.0,29.91,North,355,5.0,9.0,58,0.00,,,0.00,,2013-01-14 03:02:00,
2013-01-13 19:12:00,25.0,12.0,29.91,North,355,5.0,9.0,58,0.00,,,0.00,,2013-01-14 03:12:00,
2013-01-13 19:22:00,25.0,13.0,29.91,NNW,348,7.0,11.0,59,0.00,,,0.00,,2013-01-14 03:22:00,
2013-01-13 19:32:00,26.0,11.0,29.91,NE,35,6.0,11.0,53,0.00,,,0.00,,2013-01-14 03:32:00,
2013-01-13 19:42:00,26.0,11.0,29.91,NE,35,6.0,11.0,53,0.00,,,0.00,,2013-01-14 03:42:00,
2013-01-13 19:52:00,26.0,12.0,29.91,North,5,1.0,2.0,54,0.00,,,0.00,,2013-01-14 03:52:00,
2013-01-13 20:02:00,26.0,12.0,29.92,NW,319,1.0,3.0,54,0.00,,,0.00,,2013-01-14 04:02:00,
2013-01-13 20:11:00,26.0,12.0,29.92,NW,319,1.0,3.0,54,0.00,,,0.00,,2013-01-14 04:11:00,
2013-01-13 20:22:00,25.0,12.0,29.92,NE,56,0.0,3.0,56,0.00,,,0.00,,2013-01-14 04:22:00,
2013-01-13 20:32:00,23.0,12.0,29.93,North,360,0.0,0.0,62,0.00,,,0.00,,2013-01-14 04:32:00,
2013-01-13 20:42:00,23.0,12.0,29.93,North,360,0.0,0.0,62,0.00,,,0.00,,2013-01-14 04:42:00,
2013-01-13 20:52:00,24.0,10.0,29.93,SSW,192,4.0,7.0,55,0.00,,,0.00,,2013-01-14 04:52:00,
2013-01-13 21:03:00,25.0,9.0,29.94,WSW,238,2.0,10.0,49,0.00,,,0.00,,2013-01-14 05:03:00,
2013-01-13 21:12:00,25.0,9.0,29.94,WSW,238,2.0,10.0,49,0.00,,,0.00,,2013-01-14 05:12:00,
2013-01-13 21:22:00,25.0,7.0,29.94,WSW,246,3.0,6.0,46,0.00,,,0.00,,2013-01-14 05:22:00,
2013-01-13 21:32:00,25.0,7.0,29.94,West,264,1.0,8.0,45,0.00,,,0.00,,2013-01-14 05:32:00,
2013-01-13 21:42:00,25.0,7.0,29.94,West,264,1.0,8.0,45,0.00,,,0.00,,2013-01-14 05:42:00,
2013-01-13 21:52:00,25.0,7.0,29.95,SSE,163,2.0,8.0,45,0.00,,,0.00,,2013-01-14 05:52:00,
2013-01-13 22:02:00,24.0,6.0,29.95,ESE,116,2.0,6.0,45,0.00,,,0.00,,2013-01-14 06:02:00,
2013-01-13 22:11:00,24.0,6.0,29.95,ESE,116,2.0,6.0,45,0.00,,,0.00,,2013-01-14 06:11:00,
2013-01-13 22:22:00,24.0,5.0,29.95,North,355,4.0,9.0,43,0.00,,,0.00,,2013-01-14 06:22:00,
2013-01-13 22:32:00,25.0,5.0,29.96,NNE,28,1.0,11.0,42,0.00,,,0.00,,2013-01-14 06:32:00,
2013-01-13 22:42:00,25.0,5.0,29.96,NNE,28,1.0,11.0,42,0.00,,,0.00,,2013-01-14 06:42:00,
2013-01-13 22:52:00,24.0,6.0,29.96,West,271,2.0,8.0,45,0.00,,,0.00,,2013-01-14 06:52:00,
2013-01-13 23:01:00,24.0,5.0,29.97,North,350,3.0,9.0,43,0.00,,,0.00,,2013-01-14 07:01:00,
2013-01-13 23:11:00,24.0,5.0,29.97,North,350,3.0,9.0,43,0.00,,,0.00,,2013-01-14 07:11:00,
2013-01-13 23:22:00,23.0,4.0,29.97,ENE,70,1.0,10.0,44,0.00,,,0.00,,2013-01-14 07:22:00,
2013-01-13 23:32:00,23.0,5.0,29.98,NNE,26,4.0,7.0,46,0.00,,,0.00,,2013-01-14 07:32:00,
2013-01-13 23:42:00,23.0,5.0,29.98,NNE,26,4.0,7.0,46,0.00,,,0.00,,2013-01-14 07:42:00,
2013-01-13 23:52:00,22.0,4.0,29.99,West,272,2.0,8.0,46,0.00,,,0.00,,2013-01-14 07:52:00,